createdAt,value
2018-09-17T00:01:26.787Z,6.35
2018-09-17T00:03:56.034Z,5.50
2018-09-17T00:06:25.287Z,5.80
2018-09-17T00:08:53.902Z,5.85
2018-09-17T00:11:22.561Z,5.35
2018-09-17T00:13:51.142Z,6.10
2018-09-17T00:16:19.755Z,5.85
2018-09-17T00:18:48.542Z,5.58
2018-09-17T00:21:17.229Z,6.25
2018-09-17T00:23:46.186Z,5.90
2018-09-17T00:26:15.111Z,6.12
2018-09-17T00:28:43.804Z,6.33
2018-09-17T00:31:12.482Z,5.08
2018-09-17T00:33:41.251Z,5.40
2018-09-17T00:36:09.917Z,6.03
2018-09-17T00:38:39.604Z,6.35
2018-09-17T00:41:08.168Z,5.25
2018-09-17T00:43:36.747Z,5.28
2018-09-17T00:46:05.421Z,5.58
2018-09-17T00:48:35.106Z,6.37
2018-09-17T00:51:04.024Z,5.78
2018-09-17T00:53:32.687Z,6.55
2018-09-17T00:56:01.405Z,7.03
2018-09-17T00:58:30.069Z,6.47
2018-09-17T01:00:58.686Z,5.85
2018-09-17T01:03:27.403Z,5.50
2018-09-17T01:05:56.009Z,5.95
2018-09-17T01:08:25.043Z,6.12
2018-09-17T01:10:53.617Z,6.00
2018-09-17T01:13:22.262Z,5.62
2018-09-17T01:15:50.924Z,6.30
2018-09-17T01:18:19.547Z,5.45
2018-09-17T01:20:48.318Z,5.65
2018-09-17T01:23:17.104Z,6.37
2018-09-17T01:25:46.880Z,6.70
2018-09-17T01:28:15.561Z,6.20
2018-09-17T01:30:44.279Z,5.60
2018-09-17T01:33:12.962Z,6.67
2018-09-17T01:35:41.625Z,7.00
2018-09-17T01:38:10.271Z,6.33
2018-09-17T01:40:38.971Z,6.17
2018-09-17T01:43:07.698Z,7.25
2018-09-17T01:45:36.352Z,7.95
2018-09-17T01:48:05.050Z,6.92
2018-09-17T01:50:33.788Z,7.42
2018-09-17T01:53:02.463Z,6.78
2018-09-17T01:55:31.315Z,7.22
2018-09-17T01:57:59.905Z,6.45
2018-09-17T02:00:28.723Z,8.15
2018-09-17T02:02:57.334Z,6.87
2018-09-17T02:05:25.955Z,7.17
2018-09-17T02:07:54.531Z,7.10
2018-09-17T02:10:23.205Z,7.92
2018-09-17T02:12:51.912Z,7.22
2018-09-17T02:15:20.607Z,8.53
2018-09-17T02:17:49.210Z,8.63
2018-09-17T02:20:17.841Z,7.20
2018-09-17T02:22:46.572Z,8.35
2018-09-17T02:25:15.197Z,9.25
2018-09-17T02:27:43.915Z,9.23
2018-09-17T02:30:12.610Z,8.10
2018-09-17T02:32:41.236Z,8.05
2018-09-17T02:35:09.882Z,8.20
2018-09-17T02:37:38.508Z,8.15
2018-09-17T02:40:11.846Z,8.13
2018-09-17T02:42:40.466Z,9.30
2018-09-17T02:45:09.116Z,8.95
2018-09-17T02:47:38.810Z,8.33
2018-09-17T02:50:07.680Z,8.50
2018-09-17T02:52:36.355Z,9.10
2018-09-17T02:55:05.181Z,9.23
2018-09-17T02:57:34.029Z,8.73
2018-09-17T03:00:02.653Z,9.18
2018-09-17T03:02:31.408Z,8.73
2018-09-17T03:04:59.960Z,8.88
2018-09-17T03:07:28.610Z,8.60
2018-09-17T03:09:57.603Z,7.05
2018-09-17T03:12:26.312Z,8.40
2018-09-17T03:14:55.014Z,9.13
2018-09-17T03:17:23.987Z,9.38
2018-09-17T03:19:52.551Z,8.60
2018-09-17T03:22:21.426Z,7.85
2018-09-17T03:24:50.084Z,8.25
2018-09-17T03:27:18.726Z,7.97
2018-09-17T03:29:47.400Z,7.92
2018-09-17T03:32:16.099Z,8.73
2018-09-17T03:34:44.663Z,7.55
2018-09-17T03:37:13.259Z,8.23
2018-09-17T03:39:41.782Z,8.60
2018-09-17T03:42:10.365Z,8.28
2018-09-17T03:44:39.017Z,8.95
2018-09-17T03:47:07.732Z,8.25
2018-09-17T03:49:36.358Z,13.32
2018-09-17T03:52:05.004Z,10.90
2018-09-17T03:54:33.573Z,9.70
2018-09-17T03:57:02.272Z,8.83
2018-09-17T03:59:31.016Z,8.55
2018-09-17T04:01:59.769Z,9.40
2018-09-17T04:04:28.437Z,8.70
2018-09-17T04:06:57.087Z,8.25
2018-09-17T04:09:26.500Z,8.65
2018-09-17T04:11:55.082Z,10.15
2018-09-17T04:14:23.688Z,9.43
2018-09-17T04:16:52.295Z,10.05
2018-09-17T04:19:20.993Z,9.03
2018-09-17T04:21:49.646Z,8.60
2018-09-17T04:24:18.673Z,8.90
2018-09-17T04:26:47.412Z,9.95
2018-09-17T04:29:16.169Z,11.20
2018-09-17T04:31:44.826Z,9.95
2018-09-17T04:34:13.425Z,12.15
2018-09-17T04:36:42.078Z,11.88
2018-09-17T04:39:12.412Z,10.20
2018-09-17T04:41:41.033Z,10.20
2018-09-17T04:44:09.586Z,10.25
2018-09-17T04:46:38.202Z,10.03
2018-09-17T04:49:06.810Z,9.65
2018-09-17T04:51:35.573Z,9.88
2018-09-17T04:54:04.354Z,9.38
2018-09-17T04:56:33.077Z,10.03
2018-09-17T04:59:01.801Z,10.10
2018-09-17T05:01:30.484Z,11.12
2018-09-17T05:03:59.119Z,10.60
2018-09-17T05:06:27.715Z,10.40
2018-09-17T05:08:56.478Z,11.08
2018-09-17T05:11:25.135Z,11.12
2018-09-17T05:13:54.058Z,11.05
2018-09-17T05:16:22.615Z,12.28
2018-09-17T05:18:51.205Z,10.00
2018-09-17T05:21:19.776Z,11.35
2018-09-17T05:23:48.514Z,11.50
2018-09-17T05:26:17.103Z,10.82
2018-09-17T05:28:45.692Z,11.25
2018-09-17T05:31:14.314Z,11.63
2018-09-17T05:33:43.135Z,11.50
2018-09-17T05:36:11.714Z,10.68
2018-09-17T05:38:40.380Z,11.12
2018-09-17T05:41:08.944Z,10.50
2018-09-17T05:43:37.753Z,13.03
2018-09-17T05:46:07.377Z,11.90
2018-09-17T05:48:36.104Z,12.18
2018-09-17T05:51:04.790Z,11.70
2018-09-17T05:53:33.449Z,10.80
2018-09-17T05:56:02.166Z,11.22
2018-09-17T05:58:30.863Z,10.53
2018-09-17T06:00:59.498Z,10.18
2018-09-17T06:03:28.186Z,10.68
2018-09-17T06:05:56.879Z,11.95
2018-09-17T06:08:25.429Z,10.58
2018-09-17T06:10:54.127Z,11.10
2018-09-17T06:13:22.753Z,11.75
2018-09-17T06:15:51.368Z,10.75
2018-09-17T06:18:19.996Z,12.43
2018-09-17T06:20:48.674Z,12.73
2018-09-17T06:23:17.334Z,9.90
2018-09-17T06:25:45.955Z,11.08
2018-09-17T06:28:14.593Z,10.90
2018-09-17T06:30:43.231Z,10.30
2018-09-17T06:33:11.907Z,12.10
2018-09-17T06:35:40.751Z,12.10
2018-09-17T06:38:09.407Z,12.18
2018-09-17T06:40:38.131Z,12.05
2018-09-17T06:43:06.958Z,10.65
2018-09-17T06:45:35.690Z,13.48
2018-09-17T06:48:04.370Z,12.78
2018-09-17T06:50:33.079Z,10.60
2018-09-17T06:53:02.543Z,11.35
2018-09-17T06:55:32.501Z,11.85
2018-09-17T06:58:01.175Z,11.50
2018-09-17T07:00:29.867Z,14.73
2018-09-17T07:02:58.498Z,14.58
2018-09-17T07:05:27.167Z,13.70
2018-09-17T07:07:56.012Z,13.60
2018-09-17T07:10:24.889Z,12.47
2018-09-17T07:12:53.630Z,11.95
2018-09-17T07:15:22.205Z,11.93
2018-09-17T07:17:53.713Z,13.32
2018-09-17T07:20:22.321Z,12.58
2018-09-17T07:22:51.056Z,11.60
2018-09-17T07:25:19.807Z,13.03
2018-09-17T07:27:48.326Z,11.17
2018-09-17T07:30:17.342Z,11.80
2018-09-17T07:32:46.211Z,12.50
2018-09-17T07:35:14.996Z,13.37
2018-09-17T07:37:43.593Z,13.20
2018-09-17T07:40:12.270Z,13.47
2018-09-17T07:42:40.933Z,11.80
2018-09-17T07:45:09.652Z,12.77
2018-09-17T07:47:38.658Z,12.77
2018-09-17T07:50:07.383Z,11.40
2018-09-17T07:52:36.133Z,11.40
2018-09-17T07:55:04.823Z,10.00
2018-09-17T07:57:33.405Z,10.67
2018-09-17T08:00:02.228Z,11.47
2018-09-17T08:02:30.890Z,11.20
2018-09-17T08:04:59.550Z,10.33
2018-09-17T08:07:28.278Z,10.33
2018-09-17T08:09:56.951Z,10.30
2018-09-17T08:12:25.693Z,10.40
2018-09-17T08:14:54.390Z,11.07
2018-09-17T08:17:23.081Z,11.30
2018-09-17T08:19:51.679Z,10.60
2018-09-17T08:22:20.326Z,9.93
2018-09-17T08:24:49.070Z,9.83
2018-09-17T08:27:17.797Z,9.90
2018-09-17T08:29:46.427Z,10.27
2018-09-17T08:32:15.075Z,9.13
2018-09-17T08:34:43.684Z,10.60
2018-09-17T08:37:12.364Z,8.70
2018-09-17T08:39:41.417Z,9.87
2018-09-17T08:42:10.063Z,9.50
2018-09-17T08:44:38.731Z,10.37
2018-09-17T08:47:07.520Z,11.33
2018-09-17T08:49:36.288Z,10.00
2018-09-17T08:52:05.162Z,9.80
2018-09-17T08:54:38.013Z,9.23
2018-09-17T08:57:12.344Z,8.67
2018-09-17T08:59:51.135Z,8.23
2018-09-17T09:02:25.232Z,9.23
2018-09-17T09:04:55.824Z,9.03
2018-09-17T09:07:29.738Z,8.50
2018-09-17T09:10:03.740Z,7.70
2018-09-17T09:12:37.698Z,9.00
2018-09-17T09:15:11.720Z,7.60
2018-09-17T09:17:40.890Z,7.33
2018-09-17T09:20:09.874Z,8.00
2018-09-17T09:22:38.564Z,8.00
2018-09-17T09:25:07.204Z,6.63
2018-09-17T09:27:35.805Z,7.50
2018-09-17T09:30:04.549Z,8.10
2018-09-17T09:32:33.117Z,6.87
2018-09-17T09:35:01.761Z,5.83
2018-09-17T09:37:30.392Z,6.20
2018-09-17T09:39:59.465Z,5.90
2018-09-17T09:42:28.049Z,6.50
2018-09-17T09:45:03.394Z,5.93
2018-09-17T09:47:31.948Z,5.60
2018-09-17T09:50:00.775Z,5.90
2018-09-17T09:52:29.392Z,5.50
2018-09-17T09:54:58.168Z,5.40
2018-09-17T09:57:26.964Z,5.90
2018-09-17T09:59:55.694Z,4.87
2018-09-17T10:02:29.514Z,4.40
2018-09-17T10:04:58.229Z,4.80
2018-09-17T10:07:26.921Z,5.60
2018-09-17T10:10:00.956Z,5.40
2018-09-17T10:12:34.869Z,5.90
2018-09-17T10:15:08.897Z,5.93
2018-09-17T10:17:43.775Z,4.40
2018-09-17T10:20:12.797Z,4.40
2018-09-17T10:22:41.432Z,4.60
2018-09-17T10:25:10.168Z,3.53
2018-09-17T10:27:39.662Z,3.27
2018-09-17T10:30:08.357Z,3.17
2018-09-17T10:32:37.181Z,2.90
2018-09-17T10:35:06.059Z,2.77
2018-09-17T10:37:34.742Z,3.37
2018-09-17T10:40:03.479Z,3.20
2018-09-17T10:42:32.441Z,2.87
2018-09-17T10:45:01.194Z,3.60
2018-09-17T10:47:29.947Z,3.40
2018-09-17T10:49:58.564Z,2.77
2018-09-17T10:52:27.193Z,3.60
2018-09-17T10:54:55.874Z,3.70
2018-09-17T10:57:24.653Z,3.17
2018-09-17T10:59:53.371Z,2.97
2018-09-17T11:02:22.258Z,3.57
2018-09-17T11:04:51.710Z,4.23
2018-09-17T11:07:20.467Z,3.70
2018-09-17T11:09:49.180Z,3.00
2018-09-17T11:12:18.721Z,3.63
2018-09-17T11:14:47.661Z,3.37
2018-09-17T11:17:16.660Z,3.60
2018-09-17T11:19:45.425Z,2.83
2018-09-17T11:22:16.128Z,2.97
2018-09-17T11:24:44.934Z,4.10
2018-09-17T11:27:13.478Z,3.50
2018-09-17T11:29:42.078Z,3.70
2018-09-17T11:32:10.804Z,3.77
2018-09-17T11:34:39.470Z,3.00
2018-09-17T11:37:08.349Z,3.83
2018-09-17T11:39:37.048Z,3.30
2018-09-17T11:42:05.860Z,3.20
2018-09-17T11:44:34.524Z,3.37
2018-09-17T11:47:03.248Z,3.47
2018-09-17T11:49:31.897Z,2.90
2018-09-17T11:52:00.626Z,3.80
2018-09-17T11:54:29.181Z,4.17
2018-09-17T11:56:57.845Z,3.50
2018-09-17T11:59:26.685Z,3.20
2018-09-17T12:02:00.755Z,3.67
2018-09-17T12:04:33.073Z,4.00
2018-09-17T12:07:07.121Z,4.60
2018-09-17T12:09:35.813Z,4.13
2018-09-17T12:12:04.964Z,3.50
2018-09-17T12:14:33.518Z,3.60
2018-09-17T12:17:02.210Z,3.77
2018-09-17T12:19:30.850Z,3.30
2018-09-17T12:21:59.763Z,2.77
2018-09-17T12:24:28.346Z,3.60
2018-09-17T12:26:56.966Z,3.03
2018-09-17T12:29:25.935Z,2.40
2018-09-17T12:31:54.718Z,3.00
2018-09-17T12:34:24.345Z,2.63
2018-09-17T12:36:53.138Z,3.03
2018-09-17T12:39:22.384Z,3.20
2018-09-17T12:41:51.082Z,3.03
2018-09-17T12:44:19.687Z,3.57
2018-09-17T12:46:49.077Z,2.67
2018-09-17T12:49:17.799Z,2.40
2018-09-17T12:51:46.584Z,3.10
2018-09-17T12:54:15.381Z,3.03
2018-09-17T12:56:44.317Z,3.43
2018-09-17T12:59:13.253Z,3.30
2018-09-17T13:01:42.457Z,3.40
2018-09-17T13:04:11.190Z,3.57
2018-09-17T13:06:40.051Z,3.43
2018-09-17T13:09:09.982Z,3.00
2018-09-17T13:11:38.859Z,3.50
2018-09-17T13:14:07.724Z,2.63
2018-09-17T13:16:38.718Z,2.40
2018-09-17T13:19:10.283Z,4.13
2018-09-17T13:21:39.024Z,3.17
2018-09-17T13:24:08.375Z,2.47
2018-09-17T13:26:37.884Z,3.90
2018-09-17T13:29:06.592Z,3.63
2018-09-17T13:31:35.495Z,3.27
2018-09-17T13:34:04.198Z,3.20
2018-09-17T13:36:34.110Z,3.00
2018-09-17T13:39:03.385Z,3.20
2018-09-17T13:41:32.055Z,3.27
2018-09-17T13:44:00.666Z,3.10
2018-09-17T13:46:29.365Z,4.00
2018-09-17T13:48:58.609Z,3.20
2018-09-17T13:51:27.448Z,2.67
2018-09-17T13:53:56.213Z,4.13
2018-09-17T13:56:24.943Z,3.37
2018-09-17T13:58:53.616Z,4.80
2018-09-17T14:01:22.380Z,3.90
2018-09-17T14:03:51.934Z,3.90
2018-09-17T14:06:20.575Z,2.50
2018-09-17T14:08:49.293Z,3.20
2018-09-17T14:11:17.922Z,3.73
2018-09-17T14:13:46.718Z,3.87
2018-09-17T14:16:20.429Z,3.13
2018-09-17T14:18:49.210Z,2.93
2018-09-17T14:21:17.837Z,3.60
2018-09-17T14:23:46.551Z,3.30
2018-09-17T14:26:18.396Z,3.77
2018-09-17T14:28:47.029Z,2.80
2018-09-17T14:31:15.780Z,2.73
2018-09-17T14:33:44.482Z,3.90
2018-09-17T14:36:13.232Z,2.43
2018-09-17T14:38:41.830Z,3.07
2018-09-17T14:41:10.451Z,2.90
2018-09-17T14:43:39.261Z,2.80
2018-09-17T14:46:08.989Z,3.20
2018-09-17T14:48:37.612Z,3.03
2018-09-17T14:51:06.383Z,3.30
2018-09-17T14:53:35.059Z,3.27
2018-09-17T14:56:04.284Z,7.67
2018-09-17T14:58:33.004Z,2.73
2018-09-17T15:01:01.660Z,2.80
2018-09-17T15:03:30.245Z,3.17
2018-09-17T15:05:59.158Z,2.73
2018-09-17T15:08:27.969Z,2.83
2018-09-17T15:10:57.181Z,2.90
2018-09-17T15:13:25.883Z,2.93
2018-09-17T15:15:55.610Z,3.07
2018-09-17T15:18:24.812Z,2.07
2018-09-17T15:20:53.599Z,3.13
2018-09-17T15:23:22.264Z,2.30
2018-09-17T15:25:51.059Z,3.60
2018-09-17T15:28:19.729Z,2.23
2018-09-17T15:30:48.311Z,2.50
2018-09-17T15:33:16.978Z,3.20
2018-09-17T15:35:45.647Z,3.10
2018-09-17T15:38:14.352Z,3.10
2018-09-17T15:40:43.122Z,2.80
2018-09-17T15:43:11.751Z,2.77
2018-09-17T15:45:40.413Z,3.30
2018-09-17T15:48:09.125Z,2.20
2018-09-17T15:50:37.709Z,2.70
2018-09-17T15:53:06.541Z,2.20
2018-09-17T15:55:35.469Z,3.50
2018-09-17T15:58:04.209Z,2.50
2018-09-17T16:00:33.770Z,2.83
2018-09-17T16:03:02.507Z,4.60
2018-09-17T16:05:31.169Z,3.03
2018-09-17T16:07:59.898Z,2.73
2018-09-17T16:10:28.607Z,2.73
2018-09-17T16:12:57.374Z,2.20
2018-09-17T16:15:26.032Z,2.10
2018-09-17T16:17:54.701Z,2.20
2018-09-17T16:20:23.569Z,3.07
2018-09-17T16:22:52.315Z,3.47
2018-09-17T16:25:21.078Z,2.83
2018-09-17T16:27:49.695Z,2.40
2018-09-17T16:30:18.381Z,2.70
2018-09-17T16:32:47.121Z,4.43
2018-09-17T16:35:15.751Z,1.97
2018-09-17T16:37:44.490Z,2.67
2018-09-17T16:40:13.574Z,2.27
2018-09-17T16:42:42.269Z,2.87
2018-09-17T16:45:10.940Z,3.00
2018-09-17T16:47:40.413Z,3.40
2018-09-17T16:50:09.144Z,2.80
2018-09-17T16:52:38.007Z,3.73
2018-09-17T16:55:06.704Z,2.90
2018-09-17T16:57:35.386Z,4.40
2018-09-17T17:00:04.200Z,4.20
2018-09-17T17:02:32.827Z,3.90
2018-09-17T17:05:01.553Z,4.67
2018-09-17T17:07:30.130Z,3.43
2018-09-17T17:09:59.077Z,4.97
2018-09-17T17:12:27.700Z,5.27
2018-09-17T17:14:56.419Z,5.07
2018-09-17T17:17:25.178Z,4.13
2018-09-17T17:19:53.990Z,3.87
2018-09-17T17:22:22.577Z,3.80
2018-09-17T17:24:51.695Z,5.30
2018-09-17T17:27:20.280Z,5.30
2018-09-17T17:29:49.125Z,4.40
2018-09-17T17:32:17.831Z,4.60
2018-09-17T17:34:46.572Z,4.60
2018-09-17T17:37:15.287Z,5.53
2018-09-17T17:39:44.538Z,4.70
2018-09-17T17:42:13.136Z,5.13
2018-09-17T17:44:41.883Z,4.73
2018-09-17T17:47:10.734Z,3.63
2018-09-17T17:49:39.538Z,4.23
2018-09-17T17:52:08.254Z,3.87
2018-09-17T17:54:37.004Z,3.43
2018-09-17T17:57:05.831Z,5.20
2018-09-17T17:59:34.526Z,4.90
2018-09-17T18:02:03.330Z,5.30
2018-09-17T18:04:32.770Z,5.03
2018-09-17T18:07:01.633Z,5.60
2018-09-17T18:09:30.485Z,5.07
2018-09-17T18:11:59.090Z,4.33
2018-09-17T18:14:27.717Z,4.77
2018-09-17T18:16:56.543Z,5.53
2018-09-17T18:19:25.272Z,5.00
2018-09-17T18:21:53.925Z,5.50
2018-09-17T18:24:22.549Z,4.90
2018-09-17T18:26:51.211Z,4.90
2018-09-17T18:29:19.927Z,5.20
2018-09-17T18:31:48.579Z,5.27
2018-09-17T18:34:17.282Z,5.20
2018-09-17T18:36:46.032Z,5.93
2018-09-17T18:39:14.816Z,5.73
2018-09-17T18:41:43.475Z,5.37
2018-09-17T18:44:12.124Z,7.13
2018-09-17T18:46:40.684Z,5.77
2018-09-17T18:49:09.407Z,6.50
2018-09-17T18:51:38.061Z,7.07
2018-09-17T18:54:07.229Z,7.20
2018-09-17T18:56:35.970Z,6.83
2018-09-17T18:59:04.715Z,7.53
2018-09-17T19:01:33.536Z,6.80
2018-09-17T19:04:02.674Z,6.60
2018-09-17T19:06:31.373Z,6.57
2018-09-17T19:09:00.117Z,7.53
2018-09-17T19:11:28.770Z,6.40
2018-09-17T19:14:02.740Z,8.67
2018-09-17T19:16:37.408Z,7.13
2018-09-17T19:19:06.243Z,7.23
2018-09-17T19:21:40.228Z,7.63
2018-09-17T19:24:08.784Z,6.60
2018-09-17T19:26:37.403Z,8.00
2018-09-17T19:29:11.542Z,6.93
2018-09-17T19:31:40.237Z,6.57
2018-09-17T19:34:09.017Z,6.77
2018-09-17T19:36:37.618Z,6.80
2018-09-17T19:39:12.503Z,5.93
2018-09-17T19:41:41.745Z,6.80
2018-09-17T19:44:10.401Z,6.13
2018-09-17T19:46:39.215Z,6.67
2018-09-17T19:49:08.181Z,7.57
2018-09-17T19:51:42.116Z,6.20
2018-09-17T19:54:10.771Z,7.53
2018-09-17T19:56:39.389Z,6.80
2018-09-17T19:59:13.427Z,6.13
2018-09-17T20:01:42.083Z,5.57
2018-09-17T20:04:16.076Z,5.43
2018-09-17T20:06:44.722Z,7.13
2018-09-17T20:09:13.475Z,6.10
2018-09-17T20:11:42.069Z,6.47
2018-09-17T20:14:10.692Z,6.03
2018-09-17T20:16:39.279Z,7.03
2018-09-17T20:19:07.976Z,5.70
2018-09-17T20:21:36.554Z,7.00
2018-09-17T20:24:05.449Z,6.27
2018-09-17T20:26:34.057Z,6.50
2018-09-17T20:29:02.846Z,6.10
2018-09-17T20:31:31.502Z,4.83
2018-09-17T20:34:00.159Z,5.87
2018-09-17T20:36:28.820Z,6.20
2018-09-17T20:38:57.664Z,6.20
2018-09-17T20:41:26.282Z,5.57
2018-09-17T20:43:54.911Z,6.13
2018-09-17T20:46:23.561Z,6.30
2018-09-17T20:48:52.469Z,6.43
2018-09-17T20:51:21.108Z,6.43
2018-09-17T20:53:49.834Z,7.40
2018-09-17T20:56:18.422Z,6.23
2018-09-17T20:58:47.777Z,5.50
2018-09-17T21:01:16.374Z,5.27
2018-09-17T21:03:45.001Z,6.43
2018-09-17T21:06:13.659Z,6.90
2018-09-17T21:08:42.412Z,5.57
2018-09-17T21:11:11.403Z,7.33
2018-09-17T21:13:40.221Z,6.33
2018-09-17T21:16:08.969Z,5.83
2018-09-17T21:18:37.646Z,6.00
2018-09-17T21:21:06.386Z,6.07
2018-09-17T21:23:35.015Z,5.37
2018-09-17T21:26:03.644Z,8.07
2018-09-17T21:28:32.346Z,6.00
2018-09-17T21:31:00.970Z,6.20
2018-09-17T21:33:29.559Z,6.10
2018-09-17T21:35:58.195Z,6.10
2018-09-17T21:38:27.035Z,6.67
2018-09-17T21:40:55.762Z,5.90
2018-09-17T21:43:24.545Z,6.67
2018-09-17T21:45:53.203Z,7.40
2018-09-17T21:48:22.096Z,7.10
2018-09-17T21:50:50.818Z,6.13
2018-09-17T21:53:19.472Z,6.80
2018-09-17T21:55:48.109Z,6.47
2018-09-17T21:58:16.847Z,6.30
2018-09-17T22:00:51.066Z,6.83
2018-09-17T22:03:19.690Z,7.50
2018-09-17T22:05:48.243Z,7.33
2018-09-17T22:08:16.993Z,6.90
2018-09-17T22:10:45.527Z,7.30
2018-09-17T22:13:14.143Z,6.67
2018-09-17T22:15:42.865Z,8.23
2018-09-17T22:18:11.515Z,9.10
2018-09-17T22:20:40.452Z,7.73
2018-09-17T22:23:09.198Z,9.33
2018-09-17T22:25:37.817Z,8.43
2018-09-17T22:28:07.542Z,8.13
2018-09-17T22:30:41.377Z,8.37
2018-09-17T22:33:10.095Z,7.07
2018-09-17T22:35:38.671Z,9.43
2018-09-17T22:38:08.424Z,7.90
2018-09-17T22:40:37.005Z,9.07
2018-09-17T22:43:05.798Z,8.83
2018-09-17T22:45:34.395Z,9.03
2018-09-17T22:48:03.617Z,8.00
2018-09-17T22:50:32.252Z,8.40
2018-09-17T22:53:00.893Z,8.77
2018-09-17T22:55:29.503Z,8.80
2018-09-17T22:57:58.177Z,8.60
2018-09-17T23:00:26.899Z,8.40
2018-09-17T23:02:55.558Z,8.37
2018-09-17T23:05:24.275Z,7.37
2018-09-17T23:07:52.881Z,8.47
2018-09-17T23:10:21.543Z,6.43
2018-09-17T23:12:50.217Z,8.20
2018-09-17T23:15:18.881Z,8.23
2018-09-17T23:17:48.761Z,8.00
2018-09-17T23:20:17.397Z,6.33
2018-09-17T23:22:46.042Z,8.37
2018-09-17T23:25:14.641Z,7.33
2018-09-17T23:27:43.216Z,7.67
2018-09-17T23:30:12.130Z,7.13
2018-09-17T23:32:40.870Z,6.70
2018-09-17T23:35:09.543Z,7.27
2018-09-17T23:37:38.145Z,6.97
2018-09-17T23:40:06.768Z,6.90
2018-09-17T23:42:41.990Z,6.90
2018-09-17T23:45:10.642Z,6.90
2018-09-17T23:47:39.262Z,6.50
2018-09-17T23:50:07.858Z,6.00
2018-09-17T23:52:37.150Z,6.47
2018-09-17T23:55:05.862Z,6.33
2018-09-17T23:57:34.511Z,6.30
